Time;durP1;ratioP1;P1;durP2;ratioP2;P2;SDS_P1;SDS_P2;PMS_P1;PMS_P2;Temp;Humidity;BMP_temperature;BMP_pressure;BME280_temperature;BME280_humidity;BME280_pressure;Samples;Min_cycle;Max_cycle;Signal;HPM_P1;HPM_P2
2023/02/07 00:02:20;;;;;;;44.60;22.30;;;0.40;99.90;;;;;;4994286;28;20401;-71
2023/02/07 00:04:46;;;;;;;54.50;22.45;;;0.30;99.90;;;;;;4994426;28;20478;-72
2023/02/07 00:07:11;;;;;;;51.23;22.00;;;0.20;99.90;;;;;;4994176;28;20722;-72
2023/02/07 00:09:37;;;;;;;52.77;24.67;;;0.20;99.90;;;;;;4994029;28;20387;-73
2023/02/07 00:12:03;;;;;;;49.40;24.87;;;0.10;99.90;;;;;;4993773;28;20387;-71
2023/02/07 00:14:29;;;;;;;56.92;24.58;;;0.10;99.90;;;;;;4994458;28;20745;-72
2023/02/07 00:16:54;;;;;;;54.93;25.40;;;0.40;99.90;;;;;;5007791;28;20393;-72
2023/02/07 00:19:20;;;;;;;52.58;22.90;;;0.40;99.90;;;;;;5003345;28;20398;-72
2023/02/07 00:21:45;;;;;;;56.25;25.02;;;0.30;99.90;;;;;;5014272;28;20494;-72
2023/02/07 00:24:11;;;;;;;63.03;28.97;;;0.20;99.90;;;;;;5005291;28;20407;-72
2023/02/07 00:26:37;;;;;;;57.50;26.57;;;0.30;99.90;;;;;;4993956;28;20407;-73
2023/02/07 00:29:03;;;;;;;65.60;26.98;;;0.60;99.90;;;;;;4993541;28;20804;-71
2023/02/07 00:31:31;;;;;;;58.00;27.00;;;1.00;99.90;;;;;;4993301;28;20832;-73
2023/02/07 00:34:01;;;;;;;59.03;24.98;;;0.70;99.90;;;;;;4993741;28;20465;-71
2023/02/07 00:36:29;;;;;;;61.00;26.52;;;0.70;99.90;;;;;;4993280;28;20383;-72
2023/02/07 00:38:59;;;;;;;66.28;27.70;;;0.40;99.90;;;;;;4993520;28;20403;-72
2023/02/07 00:41:26;;;;;;;70.70;27.80;;;0.30;99.90;;;;;;4991285;28;20394;-74
2023/02/07 00:43:52;;;;;;;66.37;26.43;;;0.20;99.90;;;;;;4993375;28;20391;-73
2023/02/07 00:46:17;;;;;;;70.95;28.63;;;0.20;99.90;;;;;;4993709;28;20934;-73
2023/02/07 00:48:44;;;;;;;70.30;27.17;;;0.10;99.90;;;;;;4993497;28;20394;-73
2023/02/07 00:51:12;;;;;;;63.58;28.15;;;-0.10;99.90;;;;;;4993253;28;20923;-73
2023/02/07 00:53:38;;;;;;;66.55;25.83;;;-0.20;99.90;;;;;;4993618;28;20804;-73
2023/02/07 00:56:05;;;;;;;62.25;26.33;;;-0.20;99.90;;;;;;4994028;28;20382;-72
2023/02/07 00:58:31;;;;;;;67.80;27.35;;;-0.10;99.90;;;;;;4993144;28;20402;-71
2023/02/07 01:00:56;;;;;;;67.55;26.25;;;-0.20;99.90;;;;;;4995696;28;20382;-72
2023/02/07 01:03:22;;;;;;;68.47;25.77;;;0.00;99.90;;;;;;5011349;28;20386;-74
2023/02/07 01:05:48;;;;;;;59.45;25.70;;;-0.10;99.90;;;;;;5000773;28;20403;-73
2023/02/07 01:08:14;;;;;;;58.30;25.58;;;0.00;99.90;;;;;;4993083;28;20406;-74
2023/02/07 01:10:42;;;;;;;64.80;25.17;;;0.30;99.90;;;;;;4993228;28;20393;-72
2023/02/07 01:13:08;;;;;;;52.75;23.55;;;0.30;99.90;;;;;;4992942;28;20468;-73
2023/02/07 01:15:39;;;;;;;62.42;26.85;;;0.10;99.90;;;;;;4992822;28;20760;-73
2023/02/07 01:18:06;;;;;;;56.10;25.23;;;-0.10;99.90;;;;;;4994987;28;20433;-72
2023/02/07 01:20:31;;;;;;;54.03;24.20;;;0.20;99.90;;;;;;4995564;28;20404;-73
2023/02/07 01:22:57;;;;;;;63.00;25.27;;;0.10;99.90;;;;;;4991625;28;20823;-72
2023/02/07 01:25:22;;;;;;;49.10;23.93;;;-0.10;99.90;;;;;;4993637;28;20391;-72
2023/02/07 01:27:48;;;;;;;58.20;23.27;;;-0.20;99.90;;;;;;4993668;28;20422;-72
2023/02/07 01:30:13;;;;;;;52.90;23.00;;;-0.10;99.90;;;;;;4993523;28;20393;-72
2023/02/07 01:32:39;;;;;;;57.90;22.60;;;-0.10;99.90;;;;;;4993215;28;20393;-74
2023/02/07 01:35:05;;;;;;;53.95;22.45;;;-0.20;99.90;;;;;;4993637;28;20748;-72
2023/02/07 01:37:30;;;;;;;56.08;23.17;;;-0.20;99.90;;;;;;4993897;28;20394;-74
2023/02/07 01:39:56;;;;;;;52.47;21.63;;;0.10;99.90;;;;;;4995143;28;20521;-73
2023/02/07 01:42:24;;;;;;;46.15;20.80;;;0.20;99.90;;;;;;4995870;28;20393;-73
2023/02/07 01:44:49;;;;;;;49.83;21.83;;;0.00;99.90;;;;;;4993790;28;20394;-74
2023/02/07 01:47:19;;;;;;;48.28;22.02;;;-0.10;99.90;;;;;;4992828;28;20402;-72
2023/02/07 01:49:46;;;;;;;42.50;20.90;;;-0.30;99.90;;;;;;4993467;28;20390;-71
2023/02/07 01:52:19;;;;;;;47.33;20.95;;;-0.20;99.90;;;;;;4992860;28;20457;-72
2023/02/07 01:54:49;;;;;;;41.73;20.23;;;-0.10;99.90;;;;;;4991026;28;20403;-73
2023/02/07 01:57:18;;;;;;;39.85;19.60;;;0.00;99.90;;;;;;4992730;28;20398;-73
2023/02/07 01:59:44;;;;;;;52.67;20.60;;;0.10;99.90;;;;;;4994170;28;20395;-73
2023/02/07 02:02:14;;;;;;;42.72;18.80;;;0.20;99.90;;;;;;4992388;28;20795;-73
2023/02/07 02:04:40;;;;;;;42.20;19.85;;;0.20;99.90;;;;;;4991700;28;20398;-72
2023/02/07 02:07:07;;;;;;;43.65;19.50;;;-0.10;99.90;;;;;;4991820;28;20464;-72
2023/02/07 02:09:33;;;;;;;42.03;19.95;;;-0.20;99.90;;;;;;4991962;28;20795;-72
2023/02/07 02:12:30;;;;;;;44.95;19.90;;;-0.30;99.90;;;;;;4991553;28;20445;-73
2023/02/07 02:15:15;;;;;;;47.27;20.37;;;-0.30;99.90;;;;;;4991756;28;20501;-72
2023/02/07 02:17:55;;;;;;;44.72;19.90;;;-0.40;99.90;;;;;;4992086;28;20378;-73
2023/02/07 02:21:14;;;;;;;44.53;19.27;;;-0.50;99.90;;;;;;4991823;28;20473;-73
2023/02/07 02:23:57;;;;;;;44.70;20.48;;;-0.60;99.90;;;;;;4951133;29;20398;-72
2023/02/07 02:26:41;;;;;;;42.78;19.80;;;-0.60;99.90;;;;;;4991900;28;20410;-73
2023/02/07 02:29:21;;;;;;;45.13;19.88;;;-0.50;99.90;;;;;;4991689;28;20379;-72
2023/02/07 02:32:07;;;;;;;44.38;19.42;;;-0.50;99.90;;;;;;4991790;28;20381;-74
2023/02/07 02:35:03;;;;;;;39.63;19.15;;;-0.40;99.90;;;;;;4990222;28;20474;-74
2023/02/07 02:37:58;;;;;;;46.25;20.30;;;-0.50;99.90;;;;;;4991271;28;20382;-72
2023/02/07 02:40:39;;;;;;;39.47;19.23;;;-0.50;99.90;;;;;;4991572;28;20408;-74
2023/02/07 02:43:27;;;;;;;44.65;20.02;;;-0.40;99.90;;;;;;4991209;28;20397;-74
2023/02/07 02:46:00;;;;;;;37.65;18.15;;;-0.50;99.90;;;;;;4990214;28;20403;-74
2023/02/07 02:48:27;;;;;;;38.30;18.45;;;-0.60;99.90;;;;;;4991327;28;20717;-73
2023/02/07 02:50:54;;;;;;;41.72;18.20;;;-0.70;99.90;;;;;;4991187;28;20386;-73
2023/02/07 02:53:20;;;;;;;41.50;19.30;;;-0.80;99.90;;;;;;4991349;28;20473;-75
2023/02/07 02:56:10;;;;;;;36.72;18.85;;;-0.90;99.90;;;;;;4991545;28;20383;-74
2023/02/07 02:59:06;;;;;;;45.22;19.92;;;-1.00;99.90;;;;;;4991780;28;20438;-73
2023/02/07 03:01:53;;;;;;;42.13;20.30;;;-1.00;99.90;;;;;;4991758;28;20736;-74
2023/02/07 03:04:43;;;;;;;43.92;19.27;;;-1.00;99.90;;;;;;4992313;28;20436;-73
2023/02/07 03:07:40;;;;;;;41.90;18.77;;;-1.00;99.90;;;;;;4996050;28;20467;-74
2023/02/07 03:10:26;;;;;;;38.50;18.33;;;-1.10;99.90;;;;;;5007036;28;20444;-74
2023/02/07 03:13:04;;;;;;;35.70;16.13;;;-0.60;99.90;;;;;;5012855;28;20421;-74
2023/02/07 03:15:47;;;;;;;28.17;15.40;;;-0.70;99.90;;;;;;5000490;28;20394;-74
2023/02/07 03:18:24;;;;;;;32.73;16.70;;;-0.90;99.90;;;;;;4994598;28;20885;-74
2023/02/07 03:20:59;;;;;;;39.58;16.55;;;-0.90;99.90;;;;;;4994208;28;20894;-73
2023/02/07 03:23:26;;;;;;;34.55;17.77;;;-1.10;99.90;;;;;;4992835;28;20433;-72
2023/02/07 03:25:54;;;;;;;32.85;16.52;;;-1.10;99.90;;;;;;4994311;28;20445;-74
2023/02/07 03:28:21;;;;;;;33.65;16.95;;;-1.10;99.90;;;;;;4994106;28;20402;-73
2023/02/07 03:30:49;;;;;;;42.58;17.00;;;-0.70;99.90;;;;;;4994235;28;20391;-73
2023/02/07 03:33:15;;;;;;;39.08;18.42;;;-0.80;99.90;;;;;;4994421;28;20767;-75
2023/02/07 03:35:52;;;;;;;35.42;17.23;;;-0.90;99.90;;;;;;5004545;28;20386;-71
2023/02/07 03:38:18;;;;;;;34.08;16.73;;;-1.00;99.90;;;;;;5016842;28;20379;-70
2023/02/07 03:40:47;;;;;;;32.22;16.30;;;-1.00;99.90;;;;;;4999201;28;20390;-74
2023/02/07 03:43:23;;;;;;;30.70;15.05;;;-0.60;99.90;;;;;;4994282;28;20473;-73
2023/02/07 03:45:49;;;;;;;29.25;15.00;;;-0.40;99.90;;;;;;4994422;28;20808;-74
2023/02/07 03:48:14;;;;;;;25.88;14.90;;;-0.70;99.90;;;;;;4993872;28;20445;-73
2023/02/07 03:50:40;;;;;;;33.58;15.15;;;-0.80;99.90;;;;;;4992388;28;20394;-72
2023/02/07 03:53:06;;;;;;;29.73;14.97;;;-0.80;99.90;;;;;;4993764;28;20945;-72
2023/02/07 03:55:32;;;;;;;29.60;14.15;;;-0.80;99.90;;;;;;4992635;28;20971;-72
2023/02/07 03:57:57;;;;;;;26.60;15.10;;;-0.70;99.90;;;;;;4993577;28;20772;-74
2023/02/07 04:00:23;;;;;;;28.70;15.27;;;-0.80;99.90;;;;;;4993737;28;20792;-73
2023/02/07 04:02:49;;;;;;;28.15;13.48;;;-1.00;99.90;;;;;;4993516;28;20386;-75
2023/02/07 04:05:14;;;;;;;32.07;15.33;;;-1.10;99.90;;;;;;4993360;28;20390;-71
2023/02/07 04:07:40;;;;;;;26.60;15.38;;;-1.20;99.90;;;;;;4993360;28;20419;-74
2023/02/07 04:10:06;;;;;;;31.85;14.98;;;-1.10;99.90;;;;;;4993738;28;20390;-74
2023/02/07 04:12:31;;;;;;;29.73;14.40;;;-1.20;99.90;;;;;;4995721;28;20397;-75
2023/02/07 04:15:05;;;;;;;27.88;14.88;;;-1.20;99.90;;;;;;4993437;28;20391;-72
2023/02/07 04:17:31;;;;;;;28.58;13.77;;;-0.80;99.90;;;;;;4992437;28;20386;-74
2023/02/07 04:19:57;;;;;;;24.45;13.65;;;-0.60;99.90;;;;;;4993851;28;20556;-72
2023/02/07 04:22:22;;;;;;;29.17;14.07;;;-0.40;94.60;;;;;;4993495;28;20390;-72
2023/02/07 04:24:48;;;;;;;28.57;13.97;;;-0.20;89.80;;;;;;4992229;28;20406;-72
2023/02/07 04:27:14;;;;;;;25.83;13.20;;;-0.10;85.30;;;;;;4994311;28;20815;-74
2023/02/07 04:29:39;;;;;;;25.70;13.68;;;-0.10;82.60;;;;;;4993952;28;20386;-73
2023/02/07 04:32:05;;;;;;;29.50;15.43;;;-0.30;82.50;;;;;;4993478;28;20417;-74
2023/02/07 04:34:30;;;;;;;28.88;15.30;;;-0.60;86.90;;;;;;4993524;28;20401;-74
2023/02/07 04:36:56;;;;;;;27.70;14.30;;;-0.90;90.20;;;;;;4993401;28;20394;-75
2023/02/07 04:39:21;;;;;;;30.10;15.10;;;-1.10;93.70;;;;;;4993138;28;21007;-75
2023/02/07 04:41:47;;;;;;;29.43;14.90;;;-1.10;97.50;;;;;;4992846;28;20397;-74
2023/02/07 04:44:13;;;;;;;29.98;15.05;;;-0.90;97.90;;;;;;4993359;28;20426;-73
2023/02/07 04:46:38;;;;;;;30.63;15.40;;;-0.70;94.90;;;;;;4992924;28;20500;-75
2023/02/07 04:49:04;;;;;;;33.97;16.50;;;-0.60;93.00;;;;;;4992735;28;20868;-75
2023/02/07 04:51:30;;;;;;;29.33;15.55;;;-0.60;92.40;;;;;;4992967;28;20748;-73
2023/02/07 04:53:55;;;;;;;30.35;14.55;;;-0.60;91.80;;;;;;4991642;28;20903;-73
2023/02/07 04:56:22;;;;;;;30.90;15.90;;;-0.80;92.10;;;;;;4992498;28;20875;-74
2023/02/07 04:58:47;;;;;;;30.52;14.75;;;-0.90;93.00;;;;;;4991382;28;20406;-72
2023/02/07 05:01:13;;;;;;;29.00;15.60;;;-1.10;94.60;;;;;;4992648;28;20390;-75
2023/02/07 05:03:39;;;;;;;23.55;13.07;;;-0.60;99.90;;;;;;4992663;28;20876;-73
2023/02/07 05:06:05;;;;;;;21.60;11.13;;;-0.30;96.60;;;;;;4992893;28;20398;-73
2023/02/07 05:08:30;;;;;;;19.10;10.70;;;-0.30;93.20;;;;;;4992626;28;20422;-74
2023/02/07 05:10:56;;;;;;;20.53;11.37;;;-0.50;91.40;;;;;;4991050;28;20402;-73
2023/02/07 05:13:23;;;;;;;19.90;10.52;;;-0.60;91.50;;;;;;4992652;28;20391;-74
2023/02/07 05:15:49;;;;;;;20.20;10.77;;;-0.80;92.50;;;;;;4992648;28;20478;-73
2023/02/07 05:18:15;;;;;;;18.00;10.32;;;-0.90;95.40;;;;;;4992605;28;20804;-76
2023/02/07 05:20:40;;;;;;;19.50;10.30;;;-0.90;97.00;;;;;;4992237;28;20464;-75
2023/02/07 05:23:06;;;;;;;16.60;9.80;;;-0.60;96.50;;;;;;4992795;28;20880;-72
2023/02/07 05:25:31;;;;;;;14.45;9.00;;;-0.60;94.40;;;;;;4993651;28;20501;-72
2023/02/07 05:27:57;;;;;;;13.67;8.13;;;-0.60;91.00;;;;;;4994640;28;20402;-73
2023/02/07 05:30:22;;;;;;;17.43;9.20;;;-0.60;91.10;;;;;;5005032;28;20429;-71
2023/02/07 05:33:03;;;;;;;16.50;8.70;;;-0.50;92.30;;;;;;5010624;28;20386;-72
2023/02/07 05:35:39;;;;;;;13.75;8.88;;;-0.50;92.20;;;;;;4994104;28;20494;-73
2023/02/07 05:38:08;;;;;;;14.80;9.18;;;-0.60;92.00;;;;;;4992709;28;20394;-74
2023/02/07 05:40:34;;;;;;;11.10;8.25;;;-0.20;92.10;;;;;;4992660;28;20829;-73
2023/02/07 05:43:04;;;;;;;13.52;7.90;;;-0.20;85.00;;;;;;4993427;28;20413;-71
2023/02/07 05:45:29;;;;;;;13.87;8.43;;;-0.30;85.60;;;;;;4992238;28;20749;-72
2023/02/07 05:47:55;;;;;;;13.48;8.70;;;-0.40;84.80;;;;;;4991719;28;20464;-74
2023/02/07 05:50:21;;;;;;;16.13;9.13;;;-0.40;86.00;;;;;;4992059;28;20414;-73
2023/02/07 05:52:47;;;;;;;13.82;8.45;;;-0.50;85.50;;;;;;4992616;28;20717;-73
2023/02/07 05:55:13;;;;;;;13.30;8.80;;;-0.50;86.00;;;;;;4995194;28;20794;-73
2023/02/07 05:57:42;;;;;;;17.77;8.60;;;-0.60;86.80;;;;;;4994692;28;20807;-73
2023/02/07 06:00:13;;;;;;;10.85;7.25;;;-0.60;87.70;;;;;;4996388;28;20387;-73
2023/02/07 06:02:39;;;;;;;14.55;7.80;;;-0.70;89.80;;;;;;4996168;28;20397;-71
2023/02/07 06:05:06;;;;;;;12.90;7.60;;;-0.20;82.40;;;;;;5011486;28;20441;-73
2023/02/07 06:07:32;;;;;;;10.45;7.38;;;0.20;74.70;;;;;;4997788;28;20485;-71
2023/02/07 06:09:58;;;;;;;10.88;8.15;;;0.30;70.10;;;;;;5005429;28;20387;-71
2023/02/07 06:12:23;;;;;;;15.20;8.20;;;0.40;68.30;;;;;;5001045;28;20394;-71
2023/02/07 06:14:49;;;;;;;11.80;7.90;;;0.40;66.80;;;;;;4992754;28;20390;-72
2023/02/07 06:17:14;;;;;;;13.33;7.90;;;0.30;66.90;;;;;;4991172;28;20785;-73
2023/02/07 06:19:40;;;;;;;12.37;8.57;;;0.10;68.00;;;;;;4992222;28;20876;-72
2023/02/07 06:22:05;;;;;;;16.10;9.60;;;0.20;70.20;;;;;;4991477;28;20401;-72
2023/02/07 06:24:31;;;;;;;15.65;9.60;;;0.30;67.60;;;;;;4990521;28;20397;-72
2023/02/07 06:26:56;;;;;;;15.50;9.60;;;0.20;67.70;;;;;;4991893;28;20574;-73
2023/02/07 06:29:22;;;;;;;16.57;9.67;;;0.20;68.80;;;;;;4991778;28;20871;-72
2023/02/07 06:31:47;;;;;;;15.13;9.40;;;0.20;68.40;;;;;;4992830;28;20382;-74
2023/02/07 06:34:13;;;;;;;17.52;9.85;;;0.10;70.10;;;;;;4991826;28;20464;-72
2023/02/07 06:36:39;;;;;;;14.65;9.77;;;0.00;71.10;;;;;;4990859;28;20400;-71
2023/02/07 06:39:04;;;;;;;14.77;9.50;;;0.20;69.60;;;;;;4992562;28;20946;-74
2023/02/07 06:41:30;;;;;;;19.13;10.20;;;0.20;68.50;;;;;;4997550;28;20389;-74
2023/02/07 06:43:55;;;;;;;16.10;9.20;;;0.20;68.20;;;;;;4999966;28;20397;-72
2023/02/07 06:46:21;;;;;;;13.68;9.45;;;0.10;69.40;;;;;;5000968;28;20394;-73
2023/02/07 06:48:46;;;;;;;16.70;10.50;;;0.10;69.30;;;;;;5002083;28;20394;-73
2023/02/07 06:51:12;;;;;;;16.30;10.50;;;-0.10;70.30;;;;;;5001377;28;20386;-72
2023/02/07 06:53:38;;;;;;;19.88;10.85;;;-0.10;73.40;;;;;;5002007;28;20477;-73
2023/02/07 06:56:03;;;;;;;14.75;9.93;;;-0.20;74.10;;;;;;5000532;28;20433;-72
2023/02/07 06:58:29;;;;;;;22.00;9.90;;;0.00;73.20;;;;;;5001383;28;20394;-73
2023/02/07 07:00:55;;;;;;;15.75;9.63;;;0.00;72.50;;;;;;4999885;28;20390;-75
2023/02/07 07:03:25;;;;;;;17.65;10.32;;;0.10;70.10;;;;;;5001988;28;20378;-74
2023/02/07 07:05:51;;;;;;;22.77;10.07;;;0.10;69.60;;;;;;4999994;28;20390;-73
2023/02/07 07:08:17;;;;;;;18.58;10.68;;;0.10;69.80;;;;;;5000010;28;20406;-74
2023/02/07 07:10:43;;;;;;;16.50;10.30;;;0.00;70.70;;;;;;5018075;28;20396;-71
2023/02/07 07:13:10;;;;;;;19.45;10.63;;;0.00;71.60;;;;;;5023318;28;20403;-73
2023/02/07 07:15:35;;;;;;;24.63;12.05;;;0.00;70.20;;;;;;5021557;28;20389;-72
2023/02/07 07:18:01;;;;;;;16.30;10.93;;;-0.40;73.40;;;;;;5018874;28;20668;-73
2023/02/07 07:20:26;;;;;;;15.80;10.40;;;-0.30;76.30;;;;;;5019373;28;20811;-73
2023/02/07 07:22:52;;;;;;;18.20;11.60;;;-0.20;76.10;;;;;;5018000;28;20726;-74
2023/02/07 07:25:18;;;;;;;22.43;11.77;;;-0.10;73.90;;;;;;5019114;28;20484;-73
2023/02/07 07:27:44;;;;;;;20.15;11.20;;;-0.20;73.90;;;;;;5018430;28;20533;-73
2023/02/07 07:30:10;;;;;;;22.20;11.90;;;-0.20;75.00;;;;;;5019870;28;20849;-71
2023/02/07 07:32:36;;;;;;;21.00;11.52;;;-0.20;76.10;;;;;;5034976;28;20726;-72
2023/02/07 07:35:03;;;;;;;23.38;12.50;;;-0.20;73.90;;;;;;5017620;28;20480;-73
2023/02/07 07:37:29;;;;;;;21.50;12.10;;;-0.40;76.50;;;;;;5032476;28;20492;-73
2023/02/07 07:39:55;;;;;;;28.25;11.93;;;-0.50;81.40;;;;;;5018539;28;20833;-71
2023/02/07 07:42:20;;;;;;;26.30;12.20;;;-0.50;79.90;;;;;;5017958;28;20424;-72
2023/02/07 07:44:46;;;;;;;24.92;12.63;;;-0.40;82.90;;;;;;5016187;28;20416;-73
2023/02/07 07:47:18;;;;;;;25.90;13.90;;;-0.40;82.00;;;;;;5016323;28;20416;-74
2023/02/07 07:49:44;;;;;;;22.83;12.30;;;-0.40;82.20;;;;;;5048971;28;20395;-74
2023/02/07 07:52:09;;;;;;;23.70;12.93;;;-0.40;82.50;;;;;;5015297;28;20969;-71
2023/02/07 07:54:35;;;;;;;25.30;12.93;;;-0.50;83.40;;;;;;5014107;28;20535;-70
2023/02/07 07:57:00;;;;;;;25.23;12.85;;;-0.50;86.00;;;;;;5016016;28;20762;-71
2023/02/07 07:59:26;;;;;;;35.42;13.98;;;-0.50;86.20;;;;;;5011840;28;20508;-72
2023/02/07 08:01:52;;;;;;;21.13;11.73;;;-0.50;87.40;;;;;;5010064;28;20413;-71
2023/02/07 08:04:17;;;;;;;18.17;11.63;;;-0.30;88.70;;;;;;5014090;28;20480;-72
2023/02/07 08:06:43;;;;;;;20.85;12.30;;;-0.10;83.90;;;;;;5031433;28;20404;-73
2023/02/07 08:09:08;;;;;;;21.60;12.90;;;-0.10;82.60;;;;;;5028702;28;20400;-73
2023/02/07 08:11:34;;;;;;;24.33;12.80;;;-0.10;82.80;;;;;;5012153;28;20392;-71
2023/02/07 08:14:00;;;;;;;24.93;12.13;;;0.00;83.20;;;;;;5012265;28;20450;-71
2023/02/07 08:16:25;;;;;;;30.13;14.70;;;0.30;84.60;;;;;;5010347;28;20412;-73
2023/02/07 08:18:51;;;;;;;23.17;12.77;;;0.30;84.60;;;;;;5010448;28;20416;-73
2023/02/07 08:21:16;;;;;;;24.30;11.40;;;0.50;85.70;;;;;;5011564;28;20444;-72
2023/02/07 08:23:42;;;;;;;22.47;11.40;;;0.60;84.80;;;;;;5013415;28;20400;-72
2023/02/07 08:26:07;;;;;;;16.63;10.07;;;0.70;82.70;;;;;;5011995;28;20393;-71
2023/02/07 08:28:33;;;;;;;16.90;10.53;;;0.70;80.60;;;;;;5013548;28;20463;-72
2023/02/07 08:31:04;;;;;;;21.60;11.70;;;0.80;79.60;;;;;;5013515;28;20416;-70
2023/02/07 08:33:30;;;;;;;18.45;10.55;;;0.90;80.30;;;;;;5010870;28;20925;-72
2023/02/07 08:35:56;;;;;;;17.63;10.98;;;1.00;79.50;;;;;;5011171;28;20385;-71
2023/02/07 08:38:22;;;;;;;20.77;11.13;;;1.20;74.50;;;;;;5011528;28;20496;-72
2023/02/07 08:40:47;;;;;;;15.63;9.93;;;1.30;74.10;;;;;;5010130;28;20872;-72
2023/02/07 08:43:13;;;;;;;16.98;10.43;;;1.40;73.90;;;;;;5016898;28;20404;-73
2023/02/07 08:45:41;;;;;;;17.23;10.27;;;1.50;71.20;;;;;;5020798;28;20441;-71
2023/02/07 08:48:07;;;;;;;22.80;10.60;;;1.70;68.70;;;;;;5013697;28;20417;-72
2023/02/07 08:50:32;;;;;;;22.77;11.30;;;1.90;65.40;;;;;;5010725;28;20407;-72
2023/02/07 08:52:58;;;;;;;16.00;10.25;;;2.10;64.50;;;;;;5010466;28;20476;-71
2023/02/07 08:55:23;;;;;;;17.17;10.93;;;2.30;61.60;;;;;;5009816;28;20393;-73
2023/02/07 08:57:49;;;;;;;20.45;12.60;;;2.50;57.90;;;;;;5011267;28;20516;-72
2023/02/07 09:00:15;;;;;;;16.63;11.88;;;2.80;54.20;;;;;;5010939;28;20389;-72
2023/02/07 09:02:42;;;;;;;18.40;11.77;;;2.80;50.50;;;;;;5010769;28;20389;-72
2023/02/07 09:05:08;;;;;;;21.15;11.55;;;2.90;52.60;;;;;;4998442;28;20437;-72
2023/02/07 09:07:33;;;;;;;15.02;9.70;;;2.90;53.50;;;;;;4994916;28;20427;-72
2023/02/07 09:09:59;;;;;;;14.60;10.07;;;2.90;52.00;;;;;;4998201;28;20399;-73
2023/02/07 09:12:25;;;;;;;17.58;11.00;;;3.10;49.10;;;;;;5004369;28;20385;-72
2023/02/07 09:14:50;;;;;;;11.97;8.57;;;3.10;45.50;;;;;;5019876;28;20381;-73
2023/02/07 09:17:16;;;;;;;15.23;8.90;;;3.10;46.90;;;;;;5016999;28;20424;-72
2023/02/07 09:19:41;;;;;;;18.47;9.87;;;3.10;46.60;;;;;;5019315;28;20443;-73
2023/02/07 09:22:07;;;;;;;20.33;10.17;;;3.20;47.30;;;;;;5018445;28;20758;-71
2023/02/07 09:24:32;;;;;;;29.60;16.73;;;3.20;47.90;;;;;;5017820;28;20400;-72
2023/02/07 09:26:59;;;;;;;15.25;10.00;;;3.40;49.30;;;;;;5017674;28;20413;-73
2023/02/07 09:29:25;;;;;;;15.10;9.85;;;3.40;48.30;;;;;;5014026;28;20936;-73
2023/02/07 09:31:51;;;;;;;13.07;8.93;;;3.60;47.40;;;;;;5013154;28;20400;-72
2023/02/07 09:34:16;;;;;;;15.38;9.73;;;3.90;44.30;;;;;;5012542;28;20873;-71
2023/02/07 09:36:42;;;;;;;14.60;10.30;;;3.90;44.20;;;;;;5010374;28;20415;-71
2023/02/07 09:39:08;;;;;;;16.17;9.10;;;3.90;43.50;;;;;;5011799;28;20420;-72
2023/02/07 09:41:49;;;;;;;16.08;11.02;;;3.90;42.60;;;;;;5011102;28;20498;-73
2023/02/07 09:44:24;;;;;;;16.55;11.20;;;3.90;44.80;;;;;;5011297;28;20527;-71
2023/02/07 09:47:08;;;;;;;12.68;9.90;;;3.90;45.30;;;;;;5012563;28;20413;-72
2023/02/07 09:49:55;;;;;;;18.48;12.13;;;4.00;45.20;;;;;;5013328;28;20511;-72
2023/02/07 09:52:34;;;;;;;11.93;9.30;;;4.10;43.90;;;;;;5016149;28;20420;-74
2023/02/07 09:55:01;;;;;;;16.42;11.27;;;4.00;38.30;;;;;;5002448;28;20388;-72
2023/02/07 09:57:40;;;;;;;13.48;10.13;;;4.20;42.30;;;;;;5009742;28;20738;-71
2023/02/07 10:00:17;;;;;;;15.85;9.15;;;4.20;38.90;;;;;;5006620;28;20413;-72
2023/02/07 10:02:50;;;;;;;13.38;8.80;;;4.10;38.00;;;;;;5000893;28;20428;-72
2023/02/07 10:05:25;;;;;;;14.73;10.10;;;4.00;36.30;;;;;;5014540;28;20810;-74
2023/02/07 10:07:51;;;;;;;12.35;8.48;;;3.90;35.60;;;;;;5014113;28;20427;-74
2023/02/07 10:10:22;;;;;;;14.55;10.32;;;4.00;36.50;;;;;;4997539;28;20413;-74
2023/02/07 10:13:01;;;;;;;11.20;8.13;;;4.10;37.60;;;;;;5008982;28;20381;-73
2023/02/07 10:15:35;;;;;;;13.10;9.15;;;4.30;34.60;;;;;;5008794;28;20478;-75
2023/02/07 10:18:28;;;;;;;11.55;9.00;;;4.20;31.80;;;;;;5007194;28;20413;-74
2023/02/07 10:21:02;;;;;;;11.93;8.23;;;4.10;32.40;;;;;;5009209;28;20412;-75
2023/02/07 10:23:31;;;;;;;14.57;8.35;;;4.00;31.50;;;;;;5009581;28;20428;-74
2023/02/07 10:26:11;;;;;;;15.45;10.43;;;4.00;31.00;;;;;;5013594;28;20411;-75
2023/02/07 10:28:51;;;;;;;14.73;9.60;;;4.10;32.70;;;;;;5009217;28;20388;-73
2023/02/07 10:31:19;;;;;;;13.70;9.20;;;4.20;31.30;;;;;;5008696;28;20401;-72
2023/02/07 10:34:08;;;;;;;11.35;8.23;;;4.50;32.70;;;;;;5009441;28;20393;-72
2023/02/07 10:36:33;;;;;;;11.02;8.18;;;4.60;30.20;;;;;;5000777;28;20463;-73
2023/02/07 10:39:10;;;;;;;11.32;8.50;;;4.40;28.70;;;;;;5007387;28;20412;-73
2023/02/07 10:41:38;;;;;;;12.43;8.40;;;4.50;29.90;;;;;;5008916;28;20443;-72
2023/02/07 10:44:15;;;;;;;13.25;9.32;;;4.60;29.30;;;;;;5014756;28;20412;-71
2023/02/07 10:46:43;;;;;;;25.48;10.30;;;4.60;29.80;;;;;;5010869;28;20743;-72
2023/02/07 10:49:19;;;;;;;14.50;9.00;;;4.60;29.30;;;;;;5010356;28;20393;-71
2023/02/07 10:51:45;;;;;;;12.80;8.90;;;4.70;28.10;;;;;;5011273;28;20377;-71
2023/02/07 10:54:15;;;;;;;10.65;8.00;;;4.80;27.30;;;;;;5010836;28;20401;-70
2023/02/07 10:56:49;;;;;;;13.57;8.73;;;4.70;27.30;;;;;;5011758;28;20405;-75
2023/02/07 10:59:45;;;;;;;12.40;8.32;;;4.70;26.40;;;;;;5011813;28;20397;-73
2023/02/07 11:02:31;;;;;;;10.10;7.82;;;4.80;26.20;;;;;;5005140;28;20501;-73
2023/02/07 11:05:02;;;;;;;10.50;7.70;;;4.80;25.00;;;;;;5011861;28;20870;-71
2023/02/07 11:07:28;;;;;;;14.30;8.40;;;4.90;24.00;;;;;;5004042;28;20421;-71
2023/02/07 11:10:22;;;;;;;13.27;9.33;;;4.80;25.00;;;;;;4994250;28;20386;-72
2023/02/07 11:12:52;;;;;;;11.07;8.20;;;4.80;26.20;;;;;;4994888;28;20461;-73
2023/02/07 11:15:22;;;;;;;10.15;7.70;;;5.00;24.60;;;;;;4992316;28;20414;-72
2023/02/07 11:17:57;;;;;;;15.90;7.88;;;5.10;23.30;;;;;;5002762;28;20387;-71
2023/02/07 11:20:34;;;;;;;11.38;7.60;;;5.10;23.60;;;;;;5004583;28;20378;-73
2023/02/07 11:23:02;;;;;;;10.65;7.60;;;5.00;21.50;;;;;;5002377;28;20386;-73
2023/02/07 11:25:37;;;;;;;13.30;8.10;;;5.00;21.30;;;;;;4992015;28;20397;-71
2023/02/07 11:28:03;;;;;;;9.68;7.80;;;5.00;21.00;;;;;;4994388;28;20464;-70
2023/02/07 11:30:34;;;;;;;13.00;7.38;;;5.10;21.70;;;;;;4994893;28;20390;-72
2023/02/07 11:33:15;;;;;;;11.55;7.70;;;5.20;21.00;;;;;;4994322;28;20426;-71
2023/02/07 11:36:11;;;;;;;12.13;7.70;;;5.20;21.50;;;;;;4994581;28;20444;-70
2023/02/07 11:38:40;;;;;;;14.27;8.13;;;5.30;22.30;;;;;;4994325;28;20386;-73
2023/02/07 11:41:26;;;;;;;11.35;7.32;;;5.30;22.10;;;;;;4994269;28;20461;-72
2023/02/07 11:44:00;;;;;;;12.53;7.80;;;5.30;22.10;;;;;;4994240;28;20435;-73
2023/02/07 11:46:39;;;;;;;12.38;8.20;;;5.40;21.60;;;;;;4994574;28;20386;-73
2023/02/07 11:49:22;;;;;;;12.60;8.40;;;5.40;20.00;;;;;;4994962;28;20899;-72
2023/02/07 11:51:56;;;;;;;12.63;7.90;;;5.50;21.10;;;;;;4994764;28;20822;-72
2023/02/07 11:54:22;;;;;;;11.45;7.80;;;5.40;21.00;;;;;;4994393;28;20401;-71
2023/02/07 11:56:58;;;;;;;14.00;8.40;;;5.60;22.70;;;;;;5009346;28;20387;-73
2023/02/07 11:59:26;;;;;;;12.25;8.15;;;5.70;21.90;;;;;;5009889;28;20399;-73
2023/02/07 12:01:55;;;;;;;10.70;7.40;;;5.90;21.50;;;;;;4994790;28;20826;-71
2023/02/07 12:04:28;;;;;;;10.80;7.10;;;5.90;19.50;;;;;;4993784;28;20401;-71
2023/02/07 12:07:24;;;;;;;11.32;7.45;;;5.70;20.00;;;;;;4993898;28;20501;-72
2023/02/07 12:10:02;;;;;;;11.48;7.53;;;5.60;20.40;;;;;;4993817;28;20891;-73
2023/02/07 12:12:48;;;;;;;15.50;8.48;;;5.70;21.30;;;;;;4993606;28;20390;-71
2023/02/07 12:15:33;;;;;;;11.65;7.65;;;5.90;20.30;;;;;;4993900;28;20945;-72
2023/02/07 12:18:20;;;;;;;12.93;9.00;;;6.00;19.80;;;;;;4994010;28;20462;-70
2023/02/07 12:21:11;;;;;;;11.25;8.52;;;6.00;19.80;;;;;;4993554;28;20801;-72
2023/02/07 12:23:44;;;;;;;13.95;8.73;;;6.00;18.90;;;;;;4993305;28;20401;-72
2023/02/07 12:26:16;;;;;;;10.98;8.30;;;5.90;19.10;;;;;;4993265;28;20413;-71
2023/02/07 12:29:11;;;;;;;12.45;7.45;;;5.90;18.70;;;;;;4993115;28;20433;-70
2023/02/07 12:31:55;;;;;;;11.23;8.65;;;5.90;17.40;;;;;;4982323;28;20399;-72
2023/02/07 12:34:56;;;;;;;10.83;6.97;;;6.00;18.70;;;;;;4991731;28;20437;-72
2023/02/07 12:37:49;;;;;;;11.68;7.00;;;6.00;16.50;;;;;;4992238;28;20424;-71
2023/02/07 12:40:38;;;;;;;8.48;6.60;;;6.30;17.10;;;;;;4993105;28;20430;-71
2023/02/07 12:43:21;;;;;;;10.23;6.30;;;6.30;14.20;;;;;;4993340;28;20474;-72
2023/02/07 12:45:59;;;;;;;9.90;6.80;;;6.20;14.20;;;;;;5008334;28;20390;-71
2023/02/07 12:48:49;;;;;;;10.80;7.50;;;6.20;14.60;;;;;;4992903;28;20479;-71
2023/02/07 12:51:45;;;;;;;10.90;6.70;;;6.20;15.20;;;;;;4992774;28;20447;-73
2023/02/07 12:54:26;;;;;;;10.95;7.45;;;6.20;14.80;;;;;;4993481;28;20698;-70